Time;durP1;ratioP1;P1;durP2;ratioP2;P2;SDS_P1;SDS_P2;PMS_P1;PMS_P2;Temp;Humidity;BMP_temperature;BMP_pressure;BME280_temperature;BME280_humidity;BME280_pressure;Samples;Min_cycle;Max_cycle;Signal;HPM_P1;HPM_P2
2023/01/17 00:01:59;;;;;;;1.50;1.00;;;2.50;99.90;;;;;;5055559;28;20025;-78
2023/01/17 00:09:59;;;;;;;2.42;1.05;;;2.40;99.90;;;;;;5071144;28;19913;-79
2023/01/17 00:12:28;;;;;;;3.22;1.08;;;2.40;99.90;;;;;;5058778;28;20044;-79
2023/01/17 00:14:56;;;;;;;1.73;1.38;;;2.40;99.90;;;;;;5045421;28;20040;-79
2023/01/17 00:17:24;;;;;;;1.52;1.33;;;2.40;99.90;;;;;;5062174;28;20036;-78
2023/01/17 01:35:32;;;;;;;4.03;2.08;;;2.40;99.90;;;;;;5058828;28;20048;-76
2023/01/17 01:37:58;;;;;;;3.42;1.63;;;2.40;99.90;;;;;;5073191;28;20489;-79
2023/01/17 01:40:24;;;;;;;2.53;2.08;;;2.30;99.90;;;;;;5058549;28;21534;-80
2023/01/17 01:42:53;;;;;;;2.80;1.50;;;2.30;99.90;;;;;;5064484;28;20036;-79
2023/01/17 01:45:25;;;;;;;3.42;1.63;;;2.30;99.90;;;;;;5070935;28;20029;-79
2023/01/17 01:47:59;;;;;;;3.17;1.50;;;2.40;99.90;;;;;;5065415;28;20024;-78
2023/01/17 01:50:26;;;;;;;2.03;1.50;;;2.30;99.90;;;;;;5072615;28;20052;-79
2023/01/17 01:52:56;;;;;;;3.47;1.50;;;2.30;99.90;;;;;;5072711;28;20051;-77
2023/01/17 01:55:26;;;;;;;2.25;1.40;;;2.30;99.90;;;;;;5071478;28;20092;-78
2023/01/17 01:57:57;;;;;;;4.07;1.52;;;2.40;99.90;;;;;;5057019;28;20044;-77
2023/01/17 02:00:32;;;;;;;3.50;1.60;;;2.40;99.90;;;;;;5065245;28;20401;-79
2023/01/17 02:03:01;;;;;;;3.58;2.33;;;2.30;99.90;;;;;;5069081;28;20647;-78
2023/01/17 02:05:28;;;;;;;4.20;1.67;;;2.30;99.90;;;;;;5072309;28;20649;-78
2023/01/17 02:08:01;;;;;;;3.90;1.60;;;2.30;99.90;;;;;;5071124;28;20113;-77
2023/01/17 02:10:29;;;;;;;3.40;1.80;;;2.30;99.90;;;;;;5054339;28;20060;-78
2023/01/17 02:12:55;;;;;;;4.50;1.48;;;2.30;99.90;;;;;;5054257;28;20486;-78
2023/01/17 02:15:28;;;;;;;2.35;1.60;;;2.30;99.90;;;;;;5069206;28;20587;-78
2023/01/17 02:18:12;;;;;;;2.50;1.70;;;2.30;99.90;;;;;;5059337;28;20658;-78
2023/01/17 02:21:09;;;;;;;3.75;1.65;;;2.20;99.90;;;;;;5058895;28;20081;-77
2023/01/17 02:23:59;;;;;;;3.30;1.80;;;2.20;99.90;;;;;;5071641;28;20032;-78
2023/01/17 02:27:05;;;;;;;3.92;1.80;;;2.20;99.90;;;;;;5070206;28;20047;-78
2023/01/17 02:29:40;;;;;;;2.50;1.38;;;2.20;99.90;;;;;;5071172;28;20040;-77
2023/01/17 02:32:24;;;;;;;4.05;1.90;;;2.20;99.90;;;;;;5067658;28;20036;-76
2023/01/17 02:34:58;;;;;;;2.03;1.80;;;2.10;99.90;;;;;;5069912;28;20056;-77
2023/01/17 02:37:29;;;;;;;2.17;1.90;;;2.10;99.90;;;;;;5071654;28;20060;-78
2023/01/17 02:40:01;;;;;;;3.92;2.25;;;2.10;99.90;;;;;;5072739;28;20033;-77
2023/01/17 02:42:38;;;;;;;2.63;1.33;;;2.10;99.90;;;;;;5051826;28;20089;-77
2023/01/17 02:45:06;;;;;;;2.40;1.42;;;2.10;99.90;;;;;;5060826;28;20031;-77
2023/01/17 02:47:32;;;;;;;3.35;1.70;;;2.10;99.90;;;;;;5050221;28;20032;-76
2023/01/17 02:50:15;;;;;;;5.53;2.08;;;2.00;99.90;;;;;;5053467;28;20401;-78
2023/01/17 02:53:09;;;;;;;4.00;1.60;;;2.00;99.90;;;;;;5062800;28;20032;-77
2023/01/17 02:55:48;;;;;;;2.22;1.55;;;2.00;99.90;;;;;;5075361;28;20043;-77
2023/01/17 02:58:46;;;;;;;2.90;1.30;;;2.00;99.90;;;;;;5074002;28;20031;-77
2023/01/17 03:01:30;;;;;;;3.17;1.27;;;2.10;99.90;;;;;;5034428;28;20051;-78
2023/01/17 03:04:04;;;;;;;1.70;1.30;;;2.10;99.90;;;;;;5069335;28;20400;-77
2023/01/17 03:06:37;;;;;;;3.08;1.23;;;2.10;99.90;;;;;;5056877;28;20103;-79
2023/01/17 03:09:04;;;;;;;2.47;1.30;;;2.10;99.90;;;;;;5055938;28;20029;-78
2023/01/17 03:11:29;;;;;;;3.67;1.33;;;2.10;99.90;;;;;;5069190;28;20039;-78
2023/01/17 03:13:56;;;;;;;2.75;1.42;;;2.10;99.90;;;;;;5066853;28;20036;-77
2023/01/17 03:16:24;;;;;;;2.15;1.25;;;2.10;99.90;;;;;;5040855;28;20040;-78
2023/01/17 03:18:52;;;;;;;2.95;1.65;;;2.10;99.90;;;;;;5070767;28;20048;-77
2023/01/17 03:21:19;;;;;;;3.38;1.50;;;2.10;99.90;;;;;;5045422;28;20559;-77
2023/01/17 03:23:45;;;;;;;5.45;1.45;;;2.00;99.90;;;;;;5068698;28;20041;-77
2023/01/17 03:26:10;;;;;;;1.30;1.20;;;2.00;99.90;;;;;;5068319;28;20035;-77
2023/01/17 03:28:36;;;;;;;2.38;1.20;;;2.00;99.90;;;;;;5068053;28;20021;-77
2023/01/17 03:31:03;;;;;;;1.75;1.60;;;2.00;99.90;;;;;;5050785;28;20029;-77
2023/01/17 03:33:29;;;;;;;2.78;1.40;;;2.00;99.90;;;;;;5066380;28;20078;-77
2023/01/17 03:35:57;;;;;;;1.90;1.00;;;2.00;99.90;;;;;;5068355;28;20480;-77
2023/01/17 03:38:25;;;;;;;2.47;1.42;;;2.10;99.90;;;;;;5039117;28;20036;-77
2023/01/17 03:40:51;;;;;;;3.03;1.33;;;2.00;99.90;;;;;;5051504;28;20033;-77
2023/01/17 03:43:17;;;;;;;1.20;1.10;;;2.00;99.90;;;;;;5068484;28;20036;-77
2023/01/17 03:45:43;;;;;;;3.28;1.33;;;2.00;99.90;;;;;;5068768;28;20085;-77
2023/01/17 03:48:09;;;;;;;2.05;1.30;;;2.00;99.90;;;;;;5068469;28;20029;-77
2023/01/17 03:50:34;;;;;;;3.17;1.65;;;2.00;99.90;;;;;;5052531;28;20029;-77
2023/01/17 03:53:01;;;;;;;2.83;1.67;;;2.00;99.90;;;;;;5069269;28;20419;-77
2023/01/17 03:55:26;;;;;;;3.08;1.77;;;2.00;99.90;;;;;;5067167;28;20021;-77
2023/01/17 03:57:53;;;;;;;3.15;1.40;;;2.00;99.90;;;;;;5069029;28;20040;-77
2023/01/17 04:00:19;;;;;;;2.35;1.42;;;2.00;99.90;;;;;;5055710;28;20041;-78
2023/01/17 04:02:45;;;;;;;3.63;1.50;;;2.00;99.90;;;;;;5040620;28;20081;-77
2023/01/17 04:05:11;;;;;;;1.63;1.27;;;2.00;99.90;;;;;;5052881;28;20119;-77
2023/01/17 04:07:37;;;;;;;2.58;1.38;;;2.00;99.90;;;;;;5057516;28;20649;-77
2023/01/17 04:10:03;;;;;;;2.63;1.48;;;2.10;99.90;;;;;;5069390;28;20037;-77
2023/01/17 04:12:29;;;;;;;2.58;1.13;;;2.10;99.90;;;;;;5068317;28;20050;-77
2023/01/17 04:14:55;;;;;;;2.95;1.58;;;2.00;99.90;;;;;;5054727;28;20064;-77
2023/01/17 04:17:21;;;;;;;3.25;1.55;;;2.00;99.90;;;;;;5068128;28;20090;-77
2023/01/17 04:19:47;;;;;;;2.63;1.30;;;2.10;99.90;;;;;;5055523;28;20039;-77
2023/01/17 04:22:13;;;;;;;3.10;1.80;;;2.00;99.90;;;;;;5068406;28;20484;-77
2023/01/17 04:24:39;;;;;;;2.88;1.50;;;2.00;99.90;;;;;;5065224;28;20029;-78
2023/01/17 04:27:05;;;;;;;1.70;1.27;;;2.00;99.90;;;;;;5054594;28;20032;-78
2023/01/17 04:29:31;;;;;;;2.30;1.85;;;2.00;99.90;;;;;;5042338;28;20100;-77
2023/01/17 04:31:57;;;;;;;3.92;1.60;;;2.00;99.90;;;;;;5050194;28;20033;-77
2023/01/17 04:34:23;;;;;;;4.75;1.55;;;2.00;99.90;;;;;;5067659;28;20044;-77
2023/01/17 04:36:49;;;;;;;2.08;1.33;;;2.00;99.90;;;;;;5050330;28;20078;-77
2023/01/17 04:39:15;;;;;;;2.03;1.48;;;2.00;99.90;;;;;;5046925;28;20040;-77
2023/01/17 04:41:42;;;;;;;4.55;1.40;;;2.00;99.90;;;;;;5054206;28;20055;-77
2023/01/17 04:44:08;;;;;;;2.25;1.40;;;2.00;99.90;;;;;;5057090;28;20461;-77
2023/01/17 04:46:34;;;;;;;2.20;1.30;;;1.90;99.90;;;;;;5071672;28;20060;-77
2023/01/17 04:49:00;;;;;;;2.50;1.35;;;1.90;99.90;;;;;;5072052;28;20032;-77
2023/01/17 04:51:26;;;;;;;4.85;1.60;;;1.90;99.90;;;;;;5071700;28;20028;-77
2023/01/17 04:53:52;;;;;;;3.13;1.35;;;1.90;99.90;;;;;;5071692;28;20604;-77
2023/01/17 04:56:18;;;;;;;1.35;1.10;;;1.90;99.90;;;;;;5071613;28;20128;-77
2023/01/17 04:58:44;;;;;;;2.33;1.30;;;1.90;99.90;;;;;;5078120;28;20037;-78
2023/01/17 05:01:10;;;;;;;2.55;1.50;;;1.90;99.90;;;;;;5058656;28;20100;-78
2023/01/17 05:03:36;;;;;;;4.85;1.70;;;1.90;99.90;;;;;;5058689;28;20036;-77
2023/01/17 05:06:02;;;;;;;4.28;1.20;;;1.90;99.90;;;;;;5073037;28;20647;-77
2023/01/17 05:08:27;;;;;;;3.45;1.23;;;1.90;99.90;;;;;;5062699;28;20027;-78
2023/01/17 05:10:53;;;;;;;1.90;1.45;;;1.80;99.90;;;;;;5077146;28;20058;-78
2023/01/17 05:13:20;;;;;;;2.72;1.42;;;1.80;99.90;;;;;;5075186;28;20013;-77
2023/01/17 05:15:46;;;;;;;2.97;1.60;;;1.80;99.90;;;;;;5061162;28;20085;-77
2023/01/17 05:18:14;;;;;;;1.40;1.30;;;1.80;99.90;;;;;;5061810;28;20040;-78
2023/01/17 05:20:40;;;;;;;2.08;1.35;;;1.80;99.90;;;;;;5060339;28;20385;-78
2023/01/17 05:23:06;;;;;;;4.88;1.52;;;1.80;99.90;;;;;;5077424;28;20031;-78
2023/01/17 05:25:33;;;;;;;3.53;1.38;;;1.80;99.90;;;;;;5065192;28;20029;-77
2023/01/17 05:27:59;;;;;;;4.05;1.50;;;1.80;99.90;;;;;;5071372;28;20021;-77
2023/01/17 05:30:26;;;;;;;1.88;1.50;;;1.80;99.90;;;;;;5074635;28;20029;-78
2023/01/17 05:32:54;;;;;;;2.50;1.30;;;1.70;99.90;;;;;;5055810;28;20078;-78
2023/01/17 05:35:24;;;;;;;3.30;1.30;;;1.70;99.90;;;;;;5054603;28;20589;-75
2023/01/17 05:37:51;;;;;;;3.55;1.67;;;1.80;99.90;;;;;;5069100;28;20032;-77
2023/01/17 05:40:22;;;;;;;3.08;1.40;;;1.70;99.90;;;;;;5059586;28;20036;-77
2023/01/17 05:42:51;;;;;;;1.63;1.35;;;1.70;99.90;;;;;;5072112;28;20442;-78
2023/01/17 05:45:20;;;;;;;2.80;1.42;;;1.70;99.90;;;;;;5064101;28;20104;-78
2023/01/17 05:47:50;;;;;;;5.65;1.88;;;1.70;99.90;;;;;;5071211;28;20052;-78
2023/01/17 05:50:20;;;;;;;2.17;1.52;;;1.70;99.90;;;;;;5043404;28;20476;-79
2023/01/17 05:52:53;;;;;;;2.65;1.90;;;1.70;99.90;;;;;;5071289;28;20565;-79
2023/01/17 05:55:20;;;;;;;2.53;1.35;;;1.70;99.90;;;;;;5055383;28;20036;-77
2023/01/17 05:57:46;;;;;;;2.67;1.85;;;1.80;99.90;;;;;;5070997;28;20497;-77
2023/01/17 06:00:13;;;;;;;2.85;1.60;;;1.70;99.90;;;;;;5064105;28;20094;-77
2023/01/17 06:02:39;;;;;;;5.45;2.15;;;1.70;99.90;;;;;;5070814;28;20028;-77
2023/01/17 06:05:05;;;;;;;2.28;1.58;;;1.70;99.90;;;;;;5071384;28;20040;-76
2023/01/17 06:07:31;;;;;;;5.03;1.90;;;1.70;99.90;;;;;;5063511;28;20033;-77
2023/01/17 06:09:57;;;;;;;2.58;1.70;;;1.70;99.90;;;;;;5057546;28;20028;-77
2023/01/17 06:12:23;;;;;;;2.42;1.40;;;1.70;99.90;;;;;;5043004;28;20729;-77
2023/01/17 06:14:49;;;;;;;8.18;2.25;;;1.60;99.90;;;;;;5071373;28;20401;-78
2023/01/17 06:17:15;;;;;;;2.70;1.60;;;1.60;99.90;;;;;;5070897;28;20039;-77
2023/01/17 06:19:41;;;;;;;4.72;1.95;;;1.60;99.90;;;;;;5039515;28;20052;-78
2023/01/17 06:22:08;;;;;;;1.70;1.27;;;1.60;99.90;;;;;;5057952;28;20558;-77
2023/01/17 06:24:33;;;;;;;4.95;1.95;;;1.70;99.90;;;;;;5053860;28;20049;-77
2023/01/17 06:26:59;;;;;;;4.30;1.42;;;1.70;99.90;;;;;;5071781;28;20032;-77
2023/01/17 06:29:26;;;;;;;2.10;1.52;;;1.70;99.90;;;;;;5071536;28;20120;-77
2023/01/17 06:31:52;;;;;;;4.07;1.85;;;1.60;99.90;;;;;;5070854;28;20120;-77
2023/01/17 06:34:17;;;;;;;3.97;1.75;;;1.50;99.90;;;;;;5070433;28;20070;-77
2023/01/17 06:36:43;;;;;;;2.28;1.70;;;1.50;99.90;;;;;;5071531;28;20028;-77
2023/01/17 06:39:10;;;;;;;3.03;1.60;;;1.50;99.90;;;;;;5061926;28;20046;-77
2023/01/17 06:41:35;;;;;;;3.65;1.80;;;1.50;99.90;;;;;;5071760;28;20029;-77
2023/01/17 06:44:20;;;;;;;4.30;1.73;;;1.40;99.90;;;;;;5068066;28;20742;-77
2023/01/17 06:46:46;;;;;;;4.68;1.55;;;1.40;99.90;;;;;;5049672;28;20107;-77
2023/01/17 06:49:13;;;;;;;5.65;1.80;;;1.40;99.90;;;;;;5036911;28;20032;-77
2023/01/17 06:51:39;;;;;;;6.18;1.85;;;1.40;99.90;;;;;;5051916;28;20029;-77
2023/01/17 06:54:05;;;;;;;5.22;1.95;;;1.30;99.90;;;;;;5072238;28;20086;-77
2023/01/17 06:56:32;;;;;;;6.40;1.75;;;1.30;99.90;;;;;;5035104;28;20040;-77
2023/01/17 06:58:58;;;;;;;3.05;1.60;;;1.20;99.90;;;;;;5062045;28;20028;-77
2023/01/17 07:01:24;;;;;;;3.45;1.88;;;1.20;99.90;;;;;;5059995;28;20520;-77
2023/01/17 07:03:51;;;;;;;3.05;1.77;;;1.20;99.90;;;;;;5056433;28;20039;-78
2023/01/17 07:06:17;;;;;;;4.70;1.83;;;1.10;99.90;;;;;;5073126;28;20058;-77
2023/01/17 07:08:43;;;;;;;2.35;1.48;;;1.10;99.90;;;;;;5054807;28;20467;-77
2023/01/17 07:11:09;;;;;;;3.70;2.03;;;1.20;99.90;;;;;;5059679;28;20439;-78
2023/01/17 07:13:37;;;;;;;3.30;1.73;;;1.20;99.90;;;;;;5040125;28;20029;-78
2023/01/17 07:16:04;;;;;;;2.38;1.92;;;1.10;99.90;;;;;;5062314;28;20029;-78
2023/01/17 07:18:31;;;;;;;3.38;1.73;;;1.10;99.90;;;;;;5047507;28;20062;-78
2023/01/17 07:20:57;;;;;;;4.35;1.83;;;1.10;99.90;;;;;;5075474;28;20036;-77
2023/01/17 07:23:24;;;;;;;2.78;1.88;;;1.20;99.90;;;;;;5053639;28;20028;-78
2023/01/17 07:25:55;;;;;;;4.63;1.92;;;1.20;99.90;;;;;;5060789;28;20025;-78
2023/01/17 07:28:22;;;;;;;2.67;1.65;;;1.20;99.90;;;;;;5069281;28;20025;-76
2023/01/17 07:30:48;;;;;;;3.17;1.90;;;1.20;99.90;;;;;;5056853;28;20029;-77
2023/01/17 07:33:14;;;;;;;2.83;1.80;;;1.10;99.90;;;;;;5052911;28;20032;-78
2023/01/17 07:35:40;;;;;;;4.25;1.88;;;1.10;99.90;;;;;;5051825;28;20520;-78
2023/01/17 07:38:10;;;;;;;5.03;2.03;;;1.10;99.90;;;;;;5052825;28;20028;-77
2023/01/17 07:40:39;;;;;;;3.30;1.98;;;1.10;99.90;;;;;;5059261;28;20024;-79
2023/01/17 07:43:12;;;;;;;3.60;1.90;;;1.10;99.90;;;;;;5068048;28;20369;-76
2023/01/17 07:45:49;;;;;;;1.80;1.48;;;1.20;99.90;;;;;;5056138;28;20056;-78
2023/01/17 07:48:17;;;;;;;2.78;1.80;;;1.20;99.90;;;;;;5064818;28;20667;-77
2023/01/17 07:50:43;;;;;;;4.50;2.03;;;1.20;99.90;;;;;;5072925;28;20077;-78
2023/01/17 07:53:09;;;;;;;2.92;2.22;;;1.20;99.90;;;;;;5055124;28;20032;-78
2023/01/17 07:55:35;;;;;;;2.15;1.83;;;1.10;99.90;;;;;;5039802;28;20047;-78
2023/01/17 07:58:01;;;;;;;3.22;2.33;;;1.10;99.90;;;;;;5051740;28;20029;-79
2023/01/17 08:00:28;;;;;;;4.68;2.35;;;1.10;99.90;;;;;;5053640;28;20119;-77
2023/01/17 08:02:57;;;;;;;4.10;2.13;;;1.10;99.90;;;;;;5064716;28;20175;-78
2023/01/17 08:05:24;;;;;;;5.00;3.08;;;1.10;99.90;;;;;;5067599;28;20033;-78
2023/01/17 08:07:51;;;;;;;3.45;2.15;;;1.10;99.90;;;;;;5068129;28;20655;-77
2023/01/17 08:10:18;;;;;;;4.00;1.90;;;1.10;99.90;;;;;;5052235;28;20283;-77
2023/01/17 08:12:48;;;;;;;3.85;1.73;;;1.10;99.90;;;;;;5065908;28;20023;-78
2023/01/17 08:15:16;;;;;;;3.00;1.90;;;1.20;99.90;;;;;;5026493;28;20047;-76
2023/01/17 08:17:46;;;;;;;4.30;2.45;;;1.30;99.90;;;;;;5066040;28;20044;-77
2023/01/17 08:20:13;;;;;;;4.25;2.20;;;1.30;99.90;;;;;;5046600;28;20395;-76
2023/01/17 08:22:39;;;;;;;4.13;2.22;;;1.40;99.90;;;;;;5064871;28;20040;-79
2023/01/17 08:25:06;;;;;;;3.75;2.22;;;1.50;99.90;;;;;;5032318;28;20029;-77
2023/01/17 08:27:31;;;;;;;2.97;2.30;;;1.50;99.90;;;;;;5035696;28;20025;-78
2023/01/17 08:29:58;;;;;;;3.47;2.22;;;1.50;99.90;;;;;;5064756;28;20029;-77
2023/01/17 08:32:23;;;;;;;7.40;1.90;;;1.50;99.90;;;;;;5052604;28;20447;-78
2023/01/17 08:34:49;;;;;;;3.20;1.88;;;1.50;99.90;;;;;;5051536;28;20043;-78
2023/01/17 08:37:15;;;;;;;3.13;2.08;;;1.50;99.90;;;;;;5048772;28;20079;-77
2023/01/17 08:39:41;;;;;;;2.85;1.88;;;1.50;99.90;;;;;;5048138;28;20501;-77
2023/01/17 08:42:07;;;;;;;2.30;1.60;;;1.50;99.90;;;;;;5039204;28;20036;-77
2023/01/17 08:44:33;;;;;;;2.33;1.85;;;1.60;99.90;;;;;;5067436;28;20032;-78
2023/01/17 08:47:00;;;;;;;4.75;2.15;;;1.60;99.90;;;;;;5045513;28;20029;-77
2023/01/17 08:49:26;;;;;;;3.78;2.28;;;1.70;99.90;;;;;;5066818;28;20047;-78
2023/01/17 08:51:52;;;;;;;5.35;3.55;;;1.70;99.90;;;;;;5069086;28;20033;-77
2023/01/17 08:54:18;;;;;;;4.95;2.10;;;1.70;99.90;;;;;;5063075;28;20033;-77
2023/01/17 08:56:46;;;;;;;6.35;2.17;;;1.80;99.90;;;;;;5065678;28;20033;-77
2023/01/17 08:59:12;;;;;;;4.70;1.63;;;1.90;99.90;;;;;;5051427;28;20041;-78
2023/01/17 09:01:44;;;;;;;2.97;2.17;;;1.90;99.90;;;;;;5067604;28;20032;-78
2023/01/17 09:04:11;;;;;;;2.92;1.95;;;1.90;99.90;;;;;;5049093;28;20036;-78
2023/01/17 09:06:40;;;;;;;3.72;2.08;;;2.00;99.90;;;;;;5067921;28;20025;-77
2023/01/17 09:09:07;;;;;;;4.72;2.47;;;2.00;99.90;;;;;;5065330;28;20115;-78
2023/01/17 09:11:33;;;;;;;5.45;2.00;;;2.00;99.90;;;;;;5050299;28;20502;-77
2023/01/17 09:14:00;;;;;;;2.13;1.75;;;2.00;99.90;;;;;;5068145;28;20071;-76
2023/01/17 09:16:27;;;;;;;2.45;2.15;;;2.10;99.90;;;;;;5066319;28;20044;-78
2023/01/17 09:18:54;;;;;;;3.95;2.22;;;2.10;99.90;;;;;;5069550;28;20031;-78
2023/01/17 09:21:20;;;;;;;4.95;2.60;;;2.20;99.90;;;;;;5055344;28;20508;-78
2023/01/17 09:23:46;;;;;;;3.38;2.13;;;2.30;99.90;;;;;;5065547;28;20035;-78
2023/01/17 09:26:22;;;;;;;2.63;1.90;;;2.40;99.90;;;;;;5069943;28;20074;-76
2023/01/17 09:28:48;;;;;;;3.42;1.73;;;2.50;99.90;;;;;;5053210;28;20055;-78
2023/01/17 09:31:15;;;;;;;4.85;2.03;;;2.50;99.90;;;;;;5040979;28;20033;-78
2023/01/17 09:33:41;;;;;;;3.15;1.73;;;2.60;99.90;;;;;;5067480;28;20094;-78
2023/01/17 09:36:09;;;;;;;2.67;1.60;;;2.60;99.90;;;;;;5075062;28;20088;-78
2023/01/17 09:38:56;;;;;;;;;;;2.60;99.90;;;;;;5061769;28;20048;-77
2023/01/17 09:41:27;;;;;;;1.95;1.42;;;2.60;99.90;;;;;;5074532;28;19962;-77
2023/01/17 09:44:03;;;;;;;1.92;1.25;;;2.60;99.90;;;;;;5087047;28;20090;-77
2023/01/17 09:46:36;;;;;;;2.35;1.33;;;2.40;99.90;;;;;;5049223;28;20058;-78
2023/01/17 09:49:07;;;;;;;1.92;1.48;;;2.30;99.90;;;;;;5069638;28;20025;-77
2023/01/17 09:51:34;;;;;;;1.80;1.33;;;2.10;99.90;;;;;;5075389;28;20111;-78
2023/01/17 09:54:01;;;;;;;2.47;1.50;;;2.00;99.90;;;;;;5072703;28;20091;-77
2023/01/17 09:56:54;;;;;;;2.97;1.75;;;2.00;99.90;;;;;;5055603;28;20037;-77
2023/01/17 09:59:45;;;;;;;1.85;1.60;;;2.00;99.90;;;;;;5069826;28;20028;-77
2023/01/17 10:02:14;;;;;;;3.50;2.10;;;2.00;99.90;;;;;;5068773;28;20031;-76
2023/01/17 10:05:17;;;;;;;4.18;1.67;;;2.00;99.90;;;;;;5053220;28;20020;-74
2023/01/17 10:08:08;;;;;;;1.92;1.50;;;2.10;99.90;;;;;;5041095;28;20463;-76
2023/01/17 10:10:56;;;;;;;3.45;1.70;;;2.20;99.90;;;;;;5065811;28;20106;-76
2023/01/17 10:13:42;;;;;;;3.03;1.33;;;2.30;99.90;;;;;;5065389;28;20097;-76
2023/01/17 10:16:33;;;;;;;2.20;1.73;;;2.30;99.90;;;;;;5064283;28;20040;-75
2023/01/17 10:19:20;;;;;;;1.40;1.20;;;2.50;99.90;;;;;;5038948;28;20405;-75
2023/01/17 10:22:11;;;;;;;2.05;1.50;;;2.50;99.90;;;;;;5063776;28;20024;-76
2023/01/17 10:25:28;;;;;;;2.47;1.30;;;2.60;99.90;;;;;;5064793;28;20504;-77
2023/01/17 10:27:58;;;;;;;;;;;2.60;99.90;;;;;;5046347;28;20452;-76
2023/01/17 10:30:42;;;;;;;1.73;1.38;;;2.70;99.90;;;;;;5054972;28;19920;-76
2023/01/17 10:33:16;;;;;;;2.83;1.75;;;2.60;99.90;;;;;;5068712;28;20039;-76
2023/01/17 10:36:04;;;;;;;4.28;1.90;;;2.60;99.90;;;;;;5061443;28;20029;-75
2023/01/17 10:38:33;;;;;;;2.88;1.52;;;2.70;99.90;;;;;;5064028;28;20564;-77
2023/01/17 10:41:07;;;;;;;1.67;1.20;;;2.60;99.90;;;;;;5055049;28;20021;-78
2023/01/17 10:43:47;;;;;;;2.22;1.30;;;2.60;99.90;;;;;;5038828;28;20502;-77
2023/01/17 10:46:23;;;;;;;3.72;1.35;;;2.60;99.90;;;;;;5044647;28;20040;-78
2023/01/17 10:48:51;;;;;;;2.25;0.93;;;2.60;99.90;;;;;;5034167;28;20429;-78
2023/01/17 10:51:29;;;;;;;1.85;1.25;;;2.60;99.90;;;;;;5061038;28;20033;-77
2023/01/17 10:54:13;;;;;;;1.30;1.05;;;2.60;99.90;;;;;;5066783;28;20036;-78
2023/01/17 10:56:40;;;;;;;2.63;1.50;;;2.70;99.90;;;;;;5047969;28;20032;-78
2023/01/17 10:59:30;;;;;;;2.25;1.48;;;2.70;99.90;;;;;;5072826;28;20131;-78
2023/01/17 11:01:57;;;;;;;2.38;1.50;;;2.60;99.90;;;;;;5066672;28;20025;-77
2023/01/17 11:04:35;;;;;;;1.50;1.40;;;2.50;99.90;;;;;;5058525;28;20028;-78
2023/01/17 11:07:12;;;;;;;2.97;1.17;;;2.40;99.90;;;;;;5062593;28;20100;-78
2023/01/17 11:09:41;;;;;;;3.20;1.02;;;2.30;99.90;;;;;;5065898;28;20646;-78
2023/01/17 11:12:27;;;;;;;4.05;1.25;;;2.20;99.90;;;;;;5052136;28;20032;-77
2023/01/17 11:15:08;;;;;;;2.50;1.33;;;2.10;99.90;;;;;;5062307;28;20036;-78
2023/01/17 11:17:51;;;;;;;1.60;1.17;;;2.10;99.90;;;;;;5066762;28;20696;-77
2023/01/17 11:20:31;;;;;;;4.25;1.42;;;2.00;99.90;;;;;;5064747;28;20033;-77
2023/01/17 11:23:30;;;;;;;2.83;1.35;;;2.00;99.90;;;;;;5066229;28;20047;-78
2023/01/17 11:26:01;;;;;;;4.10;1.33;;;2.00;99.90;;;;;;5026378;28;20040;-78
2023/01/17 11:28:33;;;;;;;1.90;1.50;;;2.10;99.90;;;;;;5058028;28;20071;-78
2023/01/17 11:31:27;;;;;;;2.60;1.40;;;2.20;99.90;;;;;;5057050;28;20028;-78
2023/01/17 11:34:12;;;;;;;3.80;1.70;;;2.30;99.90;;;;;;5066393;28;20466;-78
2023/01/17 11:36:38;;;;;;;3.00;1.38;;;2.40;99.90;;;;;;5055656;28;20029;-77
2023/01/17 11:39:16;;;;;;;2.95;1.42;;;2.50;99.90;;;;;;5048093;28;20028;-78
2023/01/17 11:41:44;;;;;;;2.55;1.10;;;2.60;99.90;;;;;;5044242;28;20025;-79
2023/01/17 11:44:31;;;;;;;2.35;1.25;;;2.70;99.90;;;;;;5064230;28;20040;-78
2023/01/17 11:47:12;;;;;;;1.95;0.90;;;2.70;99.90;;;;;;5065549;28;20028;-78
2023/01/17 11:49:40;;;;;;;1.92;1.00;;;2.60;99.90;;;;;;5069384;28;20024;-78
2023/01/17 11:52:33;;;;;;;1.70;0.80;;;2.60;99.90;;;;;;5068046;28;20111;-77
2023/01/17 11:54:59;;;;;;;4.40;1.10;;;2.60;99.90;;;;;;5040965;28;20075;-77
2023/01/17 11:57:28;;;;;;;2.47;1.13;;;2.70;99.90;;;;;;5051570;28;20489;-78
2023/01/17 12:00:14;;;;;;;2.33;1.00;;;2.70;99.90;;;;;;5066262;28;20070;-78
2023/01/17 12:03:09;;;;;;;1.05;0.95;;;2.70;99.90;;;;;;5069902;28;20695;-78
2023/01/17 12:05:53;;;;;;;1.10;0.98;;;2.70;99.90;;;;;;5049500;28;20075;-78
2023/01/17 12:08:40;;;;;;;4.55;1.05;;;2.60;99.90;;;;;;5067458;28;20485;-78
2023/01/17 12:11:12;;;;;;;1.80;1.00;;;2.50;99.90;;;;;;5068094;28;20032;-78
2023/01/17 12:14:12;;;;;;;1.25;0.80;;;2.50;99.90;;;;;;5069964;28;20094;-77
2023/01/17 12:16:53;;;;;;;1.00;0.80;;;2.40;99.90;;;;;;5044584;28;20024;-77
2023/01/17 12:19:31;;;;;;;2.50;1.30;;;2.40;99.90;;;;;;5055728;28;20032;-77
2023/01/17 12:22:15;;;;;;;1.52;0.70;;;2.30;99.90;;;;;;5064615;28;20033;-77
2023/01/17 12:25:18;;;;;;;2.55;1.00;;;2.20;99.90;;;;;;5045494;28;20059;-77
2023/01/17 12:28:08;;;;;;;0.68;0.68;;;2.20;99.90;;;;;;5069056;28;20398;-77
2023/01/17 12:31:01;;;;;;;0.80;0.80;;;2.20;99.90;;;;;;5056508;28;20465;-76
2023/01/17 12:33:44;;;;;;;1.13;0.68;;;2.20;99.90;;;;;;5057335;28;20032;-76
2023/01/17 12:36:29;;;;;;;4.53;1.00;;;2.20;99.90;;;;;;5071977;28;20082;-76
2023/01/17 12:39:00;;;;;;;1.33;0.70;;;2.30;99.90;;;;;;5049985;28;20093;-77
2023/01/17 12:41:45;;;;;;;0.60;0.60;;;2.40;99.90;;;;;;5032210;28;20033;-76
2023/01/17 12:44:14;;;;;;;2.75;1.08;;;2.50;99.90;;;;;;5064556;28;20028;-76
2023/01/17 12:46:48;;;;;;;1.10;0.80;;;2.50;99.90;;;;;;5050863;28;20052;-76
2023/01/17 12:49:36;;;;;;;2.83;1.02;;;2.60;99.90;;;;;;5061537;28;20033;-76
2023/01/17 12:52:11;;;;;;;1.58;1.15;;;2.70;99.90;;;;;;5055142;28;20033;-76
2023/01/17 12:54:43;;;;;;;1.85;0.82;;;2.90;99.90;;;;;;5058835;28;20055;-76
2023/01/17 12:57:44;;;;;;;2.42;0.75;;;3.10;99.90;;;;;;5054186;28;20028;-76
2023/01/17 13:00:18;;;;;;;0.75;0.70;;;3.20;99.90;;;;;;5069393;28;20025;-76
2023/01/17 13:03:02;;;;;;;1.75;0.60;;;3.20;99.90;;;;;;5069985;28;20037;-77
2023/01/17 13:05:44;;;;;;;1.13;1.00;;;3.20;99.90;;;;;;5068083;28;20115;-76
2023/01/17 13:08:39;;;;;;;3.05;1.48;;;3.20;99.90;;;;;;5065921;28;20028;-76
2023/01/17 13:11:27;;;;;;;4.65;0.93;;;3.20;99.90;;;;;;5069527;28;20022;-76
2023/01/17 13:13:56;;;;;;;2.53;1.40;;;3.20;99.90;;;;;;5066257;28;20041;-76
2023/01/17 13:16:45;;;;;;;1.33;0.85;;;3.20;99.90;;;;;;5067405;28;20028;-75
2023/01/17 13:19:29;;;;;;;0.70;0.50;;;3.20;99.90;;;;;;5063548;28;20036;-76
2023/01/17 13:21:56;;;;;;;0.80;0.52;;;3.20;99.90;;;;;;5050867;28;20388;-75
2023/01/17 13:24:39;;;;;;;1.50;0.77;;;3.20;99.90;;;;;;5071512;28;20132;-76
2023/01/17 13:27:25;;;;;;;2.13;1.23;;;3.20;99.90;;;;;;5063502;28;20137;-76
2023/01/17 13:30:15;;;;;;;2.55;0.98;;;3.10;99.90;;;;;;5070858;28;20050;-76
2023/01/17 13:33:01;;;;;;;1.98;1.02;;;3.00;99.90;;;;;;5073099;28;20098;-76
2023/01/17 13:35:46;;;;;;;3.40;1.20;;;2.90;99.90;;;;;;5069695;28;20517;-76
2023/01/17 13:38:31;;;;;;;1.35;0.80;;;2.90;99.90;;;;;;5054545;28;20047;-76
2023/01/17 13:41:27;;;;;;;2.30;1.10;;;2.90;99.90;;;;;;5065896;28;20039;-76
2023/01/17 13:46:52;;;;;;;2.17;0.98;;;2.70;99.90;;;;;;5068913;28;20029;-76
2023/01/17 13:49:33;;;;;;;1.75;0.93;;;2.60;99.90;;;;;;5051075;28;20663;-76
2023/01/17 13:52:11;;;;;;;1.92;1.35;;;2.60;99.90;;;;;;5039598;28;20033;-76
2023/01/17 13:54:57;;;;;;;1.65;0.88;;;2.50;99.90;;;;;;5046790;28;20063;-78
2023/01/17 13:57:31;;;;;;;4.88;1.35;;;2.40;99.90;;;;;;5074386;28;20094;-76
2023/01/17 14:00:21;;;;;;;2.47;1.33;;;2.50;99.90;;;;;;5069568;28;20162;-76
2023/01/17 14:02:49;;;;;;;1.70;1.30;;;2.60;99.90;;;;;;5051834;28;20029;-76
2023/01/17 14:05:20;;;;;;;7.57;4.07;;;2.70;99.90;;;;;;5061896;28;20510;-76
2023/01/17 14:08:02;;;;;;;10.13;5.20;;;2.70;99.90;;;;;;5033418;28;20025;-76
2023/01/17 14:10:37;;;;;;;5.95;3.30;;;2.60;99.90;;;;;;5036465;28;20033;-76
2023/01/17 14:13:23;;;;;;;2.95;2.05;;;2.60;99.90;;;;;;5057953;28;20090;-77
2023/01/17 14:15:50;;;;;;;4.00;2.65;;;2.60;99.90;;;;;;5061420;28;20036;-78
2023/01/17 14:18:38;;;;;;;3.65;2.45;;;2.70;99.90;;;;;;5070246;28;20041;-77
2023/01/17 14:21:09;;;;;;;4.20;3.08;;;2.60;99.90;;;;;;5066756;28;20044;-78
2023/01/17 14:23:46;;;;;;;3.97;3.10;;;2.60;99.90;;;;;;5046855;28;20031;-78
2023/01/17 14:26:30;;;;;;;24.55;10.63;;;2.60;99.90;;;;;;5073065;28;20024;-77
2023/01/17 14:29:17;;;;;;;6.65;3.10;;;2.50;99.90;;;;;;5075434;28;20389;-75
2023/01/17 14:31:44;;;;;;;5.05;2.25;;;2.50;99.90;;;;;;5050879;28;20012;-75
2023/01/17 14:34:11;;;;;;;2.33;1.45;;;2.50;99.90;;;;;;5056167;28;20048;-77
2023/01/17 14:36:38;;;;;;;4.00;1.70;;;2.40;99.90;;;;;;5060123;28;20029;-77
2023/01/17 14:39:20;;;;;;;6.03;2.88;;;2.30;99.90;;;;;;5054236;28;20033;-75
2023/01/17 14:41:47;;;;;;;10.68;4.18;;;2.30;99.90;;;;;;5066232;28;20493;-75
2023/01/17 14:44:13;;;;;;;4.43;1.95;;;2.20;99.90;;;;;;5048897;28;20043;-78
2023/01/17 14:46:39;;;;;;;2.38;1.13;;;2.10;99.90;;;;;;5052735;28;20037;-76
2023/01/17 14:49:24;;;;;;;4.18;2.90;;;2.10;99.90;;;;;;5066020;28;20019;-76
2023/01/17 14:52:03;;;;;;;2.40;1.70;;;2.10;99.90;;;;;;5046320;28;20086;-76